Time;durP1;ratioP1;P1;durP2;ratioP2;P2;SDS_P1;SDS_P2;PMS_P1;PMS_P2;Temp;Humidity;BMP_temperature;BMP_pressure;BME280_temperature;BME280_humidity;BME280_pressure;Samples;Min_cycle;Max_cycle;Signal;HPM_P1;HPM_P2
2021/04/05 00:00:35;;;;;;;3.63;2.60;;;5.10;99.90;;;;;;5013669;28;20381;-73
2021/04/05 00:03:01;;;;;;;4.70;2.20;;;;;;;;;;5013945;28;20380;-72
2021/04/05 00:05:36;;;;;;;4.93;3.03;;;5.10;99.90;;;;;;5013101;28;20403;-74
2021/04/05 00:08:03;;;;;;;4.50;2.50;;;;;;;;;;5024755;28;20429;-73
2021/04/05 00:10:38;;;;;;;5.18;2.80;;;4.90;99.90;;;;;;5033184;28;20429;-72
2021/04/05 00:13:10;;;;;;;3.50;2.72;;;4.80;99.90;;;;;;5033183;28;20469;-73
2021/04/05 00:15:36;;;;;;;5.15;3.28;;;;;;;;;;4994096;28;20423;-72
2021/04/05 00:18:02;;;;;;;6.55;3.00;;;5.00;99.90;;;;;;4994267;28;20479;-71
2021/04/05 00:20:33;;;;;;;6.40;2.80;;;4.90;99.90;;;;;;4993387;28;20739;-72
2021/04/05 00:22:59;;;;;;;4.50;2.53;;;;;;;;;;4993594;28;20440;-72
2021/04/05 00:25:26;;;;;;;3.88;2.60;;;;;;;;;;4993358;28;20461;-71
2021/04/05 00:27:52;;;;;;;4.20;2.50;;;;;;;;;;4993561;28;20969;-71
2021/04/05 00:30:27;;;;;;;4.00;2.50;;;5.10;99.90;;;;;;4992921;28;20394;-71
2021/04/05 00:32:53;;;;;;;6.27;2.30;;;5.20;99.90;;;;;;4993512;28;20433;-71
2021/04/05 00:35:20;;;;;;;2.30;2.10;;;;;;;;;;4993394;28;20387;-72
2021/04/05 00:37:47;;;;;;;3.00;2.50;;;;;;;;;;4976346;28;20478;-72
2021/04/05 00:40:15;;;;;;;7.68;2.50;;;5.00;99.90;;;;;;4993014;28;20406;-72
2021/04/05 00:42:42;;;;;;;3.50;2.20;;;4.80;99.90;;;;;;4993736;28;20926;-73
2021/04/05 00:45:10;;;;;;;3.40;2.33;;;4.90;99.90;;;;;;4991767;28;20394;-73
2021/04/05 00:47:37;;;;;;;2.95;2.20;;;;;;;;;;4993538;28;20429;-73
2021/04/05 00:50:16;;;;;;;3.70;2.17;;;5.00;99.90;;;;;;4993481;28;20874;-73
2021/04/05 00:52:42;;;;;;;4.30;3.00;;;5.10;99.90;;;;;;4993466;28;20464;-73
2021/04/05 00:55:09;;;;;;;4.75;2.40;;;;;;;;;;4992449;28;20779;-74
2021/04/05 00:57:35;;;;;;;3.38;2.17;;;4.90;99.90;;;;;;4993313;28;20386;-73
2021/04/05 01:00:11;;;;;;;3.13;2.30;;;4.70;99.90;;;;;;4992979;28;20382;-72
2021/04/05 01:02:37;;;;;;;2.85;2.30;;;4.70;99.90;;;;;;4993307;28;20389;-71
2021/04/05 01:05:04;;;;;;;3.57;2.27;;;4.70;99.90;;;;;;4975783;28;20486;-72
2021/04/05 01:07:30;;;;;;;4.00;2.60;;;;;;;;;;4992432;28;20498;-72
2021/04/05 01:09:56;;;;;;;3.22;2.55;;;;;;;;;;4993169;28;20382;-71
2021/04/05 01:12:24;;;;;;;4.80;2.63;;;4.70;99.90;;;;;;4992516;28;20449;-72
2021/04/05 01:14:50;;;;;;;5.00;2.30;;;;;;;;;;4993215;28;20394;-72
2021/04/05 01:17:16;;;;;;;8.00;2.70;;;;;;;;;;4992381;28;20394;-72
2021/04/05 01:19:42;;;;;;;2.80;2.40;;;;;;;;;;4993048;28;20473;-72
2021/04/05 01:22:08;;;;;;;4.30;2.33;;;;;;;;;;4992240;28;20383;-73
2021/04/05 01:24:35;;;;;;;3.70;2.10;;;4.40;99.90;;;;;;4992794;28;20441;-72
2021/04/05 01:27:01;;;;;;;2.40;2.20;;;;;;;;;;4992674;28;20386;-71
2021/04/05 01:29:27;;;;;;;4.40;2.45;;;4.30;99.90;;;;;;4992188;28;20386;-72
2021/04/05 01:31:52;;;;;;;2.72;1.90;;;4.30;99.90;;;;;;4992927;28;20402;-72
2021/04/05 01:34:19;;;;;;;3.28;2.45;;;;;;;;;;4991818;28;20446;-74
2021/04/05 01:36:45;;;;;;;4.03;2.15;;;;;;;;;;4992534;28;20382;-73
2021/04/05 01:39:10;;;;;;;2.58;1.88;;;4.20;99.90;;;;;;4992115;28;20871;-74
2021/04/05 01:41:36;;;;;;;3.03;2.43;;;4.00;99.90;;;;;;4992460;28;20429;-72
2021/04/05 01:44:02;;;;;;;2.20;1.90;;;;;;;;;;4992475;28;20390;-73
2021/04/05 01:46:29;;;;;;;2.35;2.10;;;;;;;;;;4991565;28;20725;-71
2021/04/05 01:49:01;;;;;;;4.97;2.40;;;4.10;99.90;;;;;;4992208;28;20462;-71
2021/04/05 01:51:27;;;;;;;5.37;2.40;;;;;;;;;;4991451;28;20553;-71
2021/04/05 01:53:54;;;;;;;2.50;2.10;;;;;;;;;;4992399;28;20390;-71
2021/04/05 01:56:21;;;;;;;2.78;2.00;;;;;;;;;;4991547;28;20386;-71
2021/04/05 01:58:50;;;;;;;3.00;2.33;;;;;;;;;;4992342;28;20378;-72
2021/04/05 02:01:22;;;;;;;4.28;2.38;;;3.90;99.90;;;;;;4991510;28;20446;-72
2021/04/05 02:03:48;;;;;;;3.70;2.40;;;;;;;;;;4992021;28;20902;-71
2021/04/05 02:06:21;;;;;;;4.32;2.20;;;3.90;99.90;;;;;;4991489;28;20385;-72
2021/04/05 02:08:47;;;;;;;3.38;2.50;;;;;;;;;;4991652;28;20422;-71
2021/04/05 02:11:25;;;;;;;3.58;2.28;;;4.00;99.90;;;;;;4991441;28;20412;-72
2021/04/05 02:13:53;;;;;;;6.55;3.22;;;;;;;;;;4992096;28;20390;-72
2021/04/05 02:16:20;;;;;;;4.25;2.70;;;;;;;;;;4991214;28;20701;-72
2021/04/05 02:18:48;;;;;;;3.80;2.50;;;3.80;99.90;;;;;;4991705;28;20908;-71
2021/04/05 02:21:15;;;;;;;3.95;1.92;;;;;;;;;;4990991;28;20387;-72
2021/04/05 02:23:41;;;;;;;4.40;2.40;;;;;;;;;;4991882;28;20393;-71
2021/04/05 02:26:11;;;;;;;3.63;2.63;;;4.00;99.90;;;;;;4991731;28;20379;-72
2021/04/05 02:28:41;;;;;;;7.35;3.15;;;;;;;;;;4991458;28;20421;-72
2021/04/05 02:31:11;;;;;;;3.05;2.47;;;;;;;;;;4991554;28;20387;-71
2021/04/05 02:33:40;;;;;;;3.83;2.20;;;;;;;;;;4991677;28;20461;-73
2021/04/05 02:36:11;;;;;;;3.08;1.90;;;4.10;99.90;;;;;;4991601;28;20382;-73
2021/04/05 02:38:39;;;;;;;2.50;2.13;;;;;;;;;;4991460;28;20394;-71
2021/04/05 02:41:05;;;;;;;2.95;2.10;;;;;;;;;;4991546;28;20771;-72
2021/04/05 02:43:31;;;;;;;3.55;2.30;;;;;;;;;;4991033;28;20413;-72
2021/04/05 02:45:57;;;;;;;6.93;2.47;;;4.10;99.90;;;;;;4991225;28;20371;-72
2021/04/05 02:48:24;;;;;;;2.90;2.30;;;4.20;99.90;;;;;;4990581;28;20917;-72
2021/04/05 02:50:51;;;;;;;4.18;2.40;;;4.10;99.90;;;;;;4991439;28;20399;-72
2021/04/05 02:53:17;;;;;;;2.80;2.40;;;;;;;;;;4990995;28;20534;-73
2021/04/05 02:55:43;;;;;;;4.00;2.63;;;;;;;;;;4991353;28;20902;-72
2021/04/05 02:58:09;;;;;;;5.75;2.88;;;3.70;99.90;;;;;;4991195;28;20382;-72
2021/04/05 03:00:36;;;;;;;3.30;2.40;;;3.90;99.90;;;;;;4990923;28;20449;-71
2021/04/05 03:03:02;;;;;;;4.15;2.60;;;3.80;99.90;;;;;;4991067;28;20871;-72
2021/04/05 03:05:28;;;;;;;4.75;2.38;;;3.90;99.90;;;;;;4990837;28;20418;-71
2021/04/05 03:07:55;;;;;;;3.70;2.20;;;3.70;99.90;;;;;;4992499;28;20424;-72
2021/04/05 03:10:24;;;;;;;4.77;2.27;;;3.90;99.90;;;;;;4994720;28;20428;-72
2021/04/05 03:12:53;;;;;;;4.65;2.58;;;;;;;;;;4995208;28;20417;-71
2021/04/05 03:15:19;;;;;;;5.20;2.70;;;;;;;;;;5012178;28;20377;-73
2021/04/05 03:17:46;;;;;;;5.00;2.40;;;;;;;;;;5014886;28;20435;-73
2021/04/05 03:20:16;;;;;;;2.42;2.00;;;;;;;;;;5015072;28;20444;-72
2021/04/05 03:22:42;;;;;;;3.47;2.50;;;;;;;;;;5014366;28;20372;-72
2021/04/05 03:25:20;;;;;;;2.65;2.20;;;3.50;99.90;;;;;;5014689;28;20407;-73
2021/04/05 03:27:47;;;;;;;2.88;2.20;;;;;;;;;;5014539;28;20492;-73
2021/04/05 03:30:20;;;;;;;3.08;2.20;;;;;;;;;;5014661;28;20380;-73
2021/04/05 03:32:52;;;;;;;5.00;2.00;;;3.60;99.90;;;;;;5014567;28;20904;-73
2021/04/05 03:35:20;;;;;;;5.50;2.30;;;;;;;;;;5013729;28;20381;-73
2021/04/05 03:37:48;;;;;;;3.60;2.40;;;3.70;99.90;;;;;;5014451;28;20415;-72
2021/04/05 03:40:14;;;;;;;3.03;2.37;;;;;;;;;;5014477;28;20385;-73
2021/04/05 03:42:43;;;;;;;2.63;1.80;;;3.40;99.90;;;;;;5013967;28;20432;-73
2021/04/05 03:45:18;;;;;;;3.40;2.10;;;;;;;;;;5014272;28;20388;-71
2021/04/05 03:47:59;;;;;;;2.92;2.20;;;;;;;;;;5014219;28;20912;-72
2021/04/05 03:50:38;;;;;;;3.70;2.38;;;3.50;99.90;;;;;;5013561;28;20392;-72
2021/04/05 03:53:13;;;;;;;3.25;2.30;;;;;;;;;;5014180;28;20396;-72
2021/04/05 03:55:41;;;;;;;3.30;2.20;;;3.20;99.90;;;;;;5013632;28;20384;-72
2021/04/05 03:58:10;;;;;;;3.40;2.70;;;3.20;99.90;;;;;;4996442;28;20861;-72
2021/04/05 04:00:38;;;;;;;3.20;2.40;;;3.20;99.90;;;;;;5013485;28;20428;-72
2021/04/05 04:03:07;;;;;;;3.42;2.40;;;;;;;;;;5014166;28;20391;-71
2021/04/05 04:05:50;;;;;;;4.07;2.20;;;;;;;;;;5013630;28;20391;-71
2021/04/05 04:08:31;;;;;;;2.60;2.00;;;;;;;;;;5027524;28;20421;-71
2021/04/05 04:11:04;;;;;;;4.60;2.50;;;3.40;99.90;;;;;;5034212;28;20493;-73
2021/04/05 04:13:30;;;;;;;6.25;2.70;;;;;;;;;;5030407;28;20450;-71
2021/04/05 04:15:57;;;;;;;4.40;2.15;;;3.50;99.90;;;;;;5014046;28;20413;-71
2021/04/05 04:18:24;;;;;;;4.20;2.30;;;3.50;99.90;;;;;;5013093;28;20976;-73
2021/04/05 04:20:50;;;;;;;2.73;2.27;;;3.20;99.90;;;;;;5012779;28;20430;-73
2021/04/05 04:23:16;;;;;;;2.08;1.88;;;;;;;;;;4996326;28;20404;-73
2021/04/05 04:25:42;;;;;;;2.83;1.83;;;2.70;99.90;;;;;;5013271;28;20737;-74
2021/04/05 04:28:13;;;;;;;2.73;2.23;;;;;;;;;;5013410;28;20420;-73
2021/04/05 04:30:40;;;;;;;2.80;2.30;;;;;;;;;;5013225;28;20389;-72
2021/04/05 04:33:07;;;;;;;4.57;2.13;;;;;;;;;;5013669;28;20427;-71
2021/04/05 04:35:35;;;;;;;4.40;2.33;;;3.30;99.90;;;;;;5012892;28;20715;-71
2021/04/05 04:38:02;;;;;;;4.35;1.90;;;3.20;99.90;;;;;;5013884;28;20785;-72
2021/04/05 04:40:29;;;;;;;2.40;2.20;;;;;;;;;;5013004;28;20440;-73
2021/04/05 04:42:57;;;;;;;3.70;2.60;;;3.20;99.90;;;;;;5013457;28;20400;-72
2021/04/05 04:45:23;;;;;;;1.95;1.77;;;3.40;99.90;;;;;;5012957;28;20421;-72
2021/04/05 04:47:55;;;;;;;3.30;2.50;;;3.40;99.90;;;;;;5013010;28;20463;-72
2021/04/05 04:50:21;;;;;;;3.47;1.90;;;;;;;;;;5012420;28;20746;-73
2021/04/05 04:52:48;;;;;;;3.10;2.30;;;;;;;;;;5013017;28;20405;-72
2021/04/05 04:55:15;;;;;;;3.83;2.47;;;3.20;99.90;;;;;;5013680;28;20808;-72
2021/04/05 04:57:41;;;;;;;3.08;2.40;;;;;;;;;;5012368;28;20384;-73
2021/04/05 05:00:08;;;;;;;5.10;2.58;;;;;;;;;;5013119;28;20794;-73
2021/04/05 05:02:44;;;;;;;3.67;2.60;;;3.10;99.90;;;;;;5012290;28;20939;-72
2021/04/05 05:05:13;;;;;;;2.90;2.60;;;3.10;99.90;;;;;;5013329;28;20431;-71
2021/04/05 05:07:40;;;;;;;4.10;2.40;;;3.10;99.90;;;;;;4999375;28;20421;-72
2021/04/05 05:10:07;;;;;;;4.50;2.40;;;3.20;99.90;;;;;;5011841;28;20475;-72
2021/04/05 05:12:33;;;;;;;5.13;2.75;;;3.50;99.90;;;;;;5012224;28;20403;-71
2021/04/05 05:14:59;;;;;;;2.83;2.03;;;3.20;99.90;;;;;;5013050;28;20407;-72
2021/04/05 05:17:27;;;;;;;4.50;2.72;;;;;;;;;;5012132;28;20972;-72
2021/04/05 05:19:53;;;;;;;2.40;2.15;;;;;;;;;;5012595;28;20460;-72
2021/04/05 05:22:20;;;;;;;2.38;2.17;;;;;;;;;;5013022;28;20369;-71
2021/04/05 05:24:48;;;;;;;4.70;2.83;;;3.40;99.90;;;;;;5012096;28;20729;-72
2021/04/05 05:27:16;;;;;;;4.90;2.70;;;3.40;99.90;;;;;;5012665;28;20400;-71
2021/04/05 05:29:42;;;;;;;3.97;2.67;;;;;;;;;;5012067;28;20722;-72
2021/04/05 05:32:09;;;;;;;2.72;2.38;;;;;;;;;;5012218;28;20711;-72
2021/04/05 05:34:35;;;;;;;3.83;2.10;;;;;;;;;;5012259;28;20774;-72
2021/04/05 05:37:02;;;;;;;3.15;1.90;;;;;;;;;;5012584;28;20416;-71
2021/04/05 05:39:28;;;;;;;4.03;2.27;;;;;;;;;;5011684;28;20381;-72
2021/04/05 05:42:13;;;;;;;3.13;2.00;;;3.50;99.90;;;;;;5012262;28;20420;-72
2021/04/05 05:47:51;;;;;;;2.15;1.95;;;;;;;;;;5011200;28;20789;-74
2021/04/05 05:50:28;;;;;;;3.10;2.40;;;3.70;99.90;;;;;;5012577;28;20881;-71
2021/04/05 05:53:15;;;;;;;2.90;2.40;;;3.60;99.90;;;;;;5012304;28;20411;-71
2021/04/05 05:56:23;;;;;;;3.03;2.60;;;3.80;99.90;;;;;;5011681;28;20396;-73
2021/04/05 05:58:52;;;;;;;5.90;2.38;;;;;;;;;;5008933;28;20405;-72
2021/04/05 06:01:24;;;;;;;3.17;2.30;;;;;;;;;;5012584;28;20416;-71
2021/04/05 06:04:18;;;;;;;4.95;2.45;;;3.80;99.90;;;;;;5012196;28;20389;-72
2021/04/05 06:07:03;;;;;;;3.30;2.60;;;3.90;99.90;;;;;;5011852;28;20405;-72
2021/04/05 06:09:32;;;;;;;3.10;2.10;;;;;;;;;;5031057;28;20844;-72
2021/04/05 06:12:07;;;;;;;3.60;2.58;;;;;;;;;;5031109;28;20768;-71
2021/04/05 06:14:54;;;;;;;3.30;2.47;;;;;;;;;;5019542;28;20416;-72
2021/04/05 06:17:55;;;;;;;3.17;2.35;;;4.40;99.90;;;;;;5011673;28;20421;-71
2021/04/05 06:20:31;;;;;;;4.82;2.65;;;;;;;;;;5011745;28;20782;-71
2021/04/05 06:23:03;;;;;;;3.10;2.40;;;;;;;;;;5011874;28;20401;-71
2021/04/05 06:25:55;;;;;;;5.45;2.33;;;;;;;;;;5010806;28;20429;-71
2021/04/05 06:28:47;;;;;;;5.00;2.78;;;6.70;99.90;;;;;;4981145;28;21009;-72
2021/04/05 06:31:32;;;;;;;7.03;3.00;;;7.20;99.90;;;;;;5011701;28;20474;-72
2021/04/05 06:34:10;;;;;;;6.03;2.85;;;8.30;99.90;;;;;;5011564;28;20393;-71
2021/04/05 06:36:56;;;;;;;6.00;3.10;;;8.90;99.90;;;;;;5011010;28;20499;-71
2021/04/05 06:39:26;;;;;;;5.47;2.85;;;9.10;99.90;;;;;;5011536;28;20928;-71
2021/04/05 06:42:22;;;;;;;5.25;3.15;;;9.30;99.90;;;;;;5011374;28;20389;-73
2021/04/05 06:45:19;;;;;;;6.50;2.75;;;9.50;99.90;;;;;;4975844;28;20505;-72
2021/04/05 06:47:58;;;;;;;4.32;2.90;;;;;;;;;;5010898;28;20881;-72
2021/04/05 06:50:46;;;;;;;7.85;2.95;;;9.90;97.30;;;;;;5011444;28;20385;-72
2021/04/05 06:53:21;;;;;;;3.60;2.55;;;;;;;;;;5011476;28;20471;-72
2021/04/05 06:55:56;;;;;;;6.20;2.60;;;10.30;98.50;;;;;;5010731;28;20409;-72
2021/04/05 06:58:32;;;;;;;5.35;3.22;;;;;;;;;;5011451;28;20395;-71
2021/04/05 07:01:12;;;;;;;10.18;4.10;;;10.40;95.20;;;;;;5011598;28;20439;-73
2021/04/05 07:03:41;;;;;;;6.15;3.55;;;10.40;95.90;;;;;;5009068;28;20436;-72
2021/04/05 07:06:25;;;;;;;7.05;3.10;;;10.30;91.70;;;;;;5011277;28;20408;-71
2021/04/05 07:09:03;;;;;;;6.78;3.50;;;;;;;;;;5028701;28;20450;-71
2021/04/05 07:11:36;;;;;;;8.63;4.03;;;;;;;;;;5030311;28;20795;-72
2021/04/05 07:14:23;;;;;;;7.25;4.20;;;10.00;93.20;;;;;;5030658;28;20404;-71
2021/04/05 07:16:55;;;;;;;7.40;4.03;;;;;;;;;;5030632;28;21020;-71
2021/04/05 07:19:27;;;;;;;7.80;3.90;;;10.10;93.00;;;;;;5030634;28;20466;-71
2021/04/05 07:22:03;;;;;;;5.90;3.70;;;10.10;95.00;;;;;;5030522;28;20395;-72
2021/04/05 07:25:01;;;;;;;8.52;4.40;;;10.20;93.10;;;;;;5030756;28;20375;-73
2021/04/05 07:27:27;;;;;;;6.25;3.95;;;;;;;;;;5028655;28;20395;-71
2021/04/05 07:30:13;;;;;;;7.55;3.78;;;10.50;94.30;;;;;;5030105;28;20386;-72
2021/04/05 07:32:42;;;;;;;8.00;3.80;;;;;;;;;;5029831;28;20950;-72
2021/04/05 07:35:29;;;;;;;7.05;4.10;;;;;;;;;;5029319;28;20398;-73
2021/04/05 07:38:18;;;;;;;7.47;4.32;;;10.40;94.10;;;;;;5030430;28;20387;-72
2021/04/05 07:41:28;;;;;;;8.30;3.95;;;11.00;95.80;;;;;;5030093;28;20721;-73
2021/04/05 07:43:56;;;;;;;9.43;4.10;;;10.70;97.00;;;;;;4992734;28;20901;-72
2021/04/05 07:46:43;;;;;;;7.43;4.00;;;;;;;;;;5030135;28;20383;-72
2021/04/05 07:49:30;;;;;;;5.05;3.92;;;11.30;93.40;;;;;;5030501;28;20433;-75
2021/04/05 07:52:06;;;;;;;8.03;3.97;;;10.70;92.90;;;;;;5030585;28;20387;-73
2021/04/05 07:54:38;;;;;;;8.93;5.28;;;11.20;93.90;;;;;;5032098;28;20379;-72
2021/04/05 07:57:10;;;;;;;8.80;5.10;;;10.80;97.40;;;;;;5033920;28;20394;-72
2021/04/05 07:59:49;;;;;;;7.80;3.90;;;;;;;;;;5033237;28;20430;-71
2021/04/05 08:02:47;;;;;;;6.20;3.50;;;11.10;93.30;;;;;;5034134;28;20449;-71
2021/04/05 08:05:36;;;;;;;10.80;3.90;;;10.60;97.30;;;;;;5016390;28;20415;-72
2021/04/05 08:08:18;;;;;;;8.43;4.20;;;;;;;;;;5033520;28;20419;-72
2021/04/05 08:11:09;;;;;;;7.13;3.53;;;10.70;95.30;;;;;;5033191;28;20747;-71
2021/04/05 08:14:04;;;;;;;6.93;4.43;;;10.90;92.60;;;;;;5029506;28;20396;-74
2021/04/05 08:16:33;;;;;;;10.75;4.82;;;;;;;;;;5013762;28;20698;-72
2021/04/05 08:19:46;;;;;;;6.18;4.10;;;10.80;97.80;;;;;;5012572;28;20480;-71
2021/04/05 08:22:36;;;;;;;8.00;4.07;;;10.60;95.80;;;;;;4938897;28;20432;-72
2021/04/05 08:25:10;;;;;;;8.32;3.70;;;10.60;92.60;;;;;;5013914;28;20850;-72
2021/04/05 08:27:51;;;;;;;10.97;4.33;;;;;;;;;;5013144;28;20389;-73
2021/04/05 08:30:23;;;;;;;12.68;4.95;;;10.60;98.10;;;;;;5013245;28;20385;-74
2021/04/05 08:33:03;;;;;;;10.75;5.22;;;;;;;;;;5013092;28;20381;-72
2021/04/05 08:35:35;;;;;;;11.38;4.60;;;10.90;95.50;;;;;;5013590;28;20377;-72
2021/04/05 08:38:01;;;;;;;10.60;5.03;;;;;;;;;;5013573;28;20389;-72
2021/04/05 08:40:57;;;;;;;9.20;4.60;;;10.90;92.40;;;;;;5013248;28;20486;-74
2021/04/05 08:43:39;;;;;;;9.85;5.13;;;10.50;97.90;;;;;;5013290;28;20459;-73
2021/04/05 08:46:25;;;;;;;11.00;4.68;;;;;;;;;;5013540;28;20496;-72
2021/04/05 08:49:01;;;;;;;10.60;5.45;;;10.70;98.60;;;;;;5011410;28;20517;-71
2021/04/05 08:51:35;;;;;;;9.07;4.65;;;11.60;94.20;;;;;;5013131;28;20388;-73
2021/04/05 08:54:03;;;;;;;10.32;5.43;;;11.00;95.50;;;;;;5013210;28;20408;-72
2021/04/05 08:56:43;;;;;;;7.75;5.00;;;11.30;94.00;;;;;;5013388;28;20772;-71
2021/04/05 08:59:18;;;;;;;11.15;4.45;;;11.30;98.40;;;;;;5013163;28;20389;-74
2021/04/05 09:01:48;;;;;;;6.63;4.47;;;11.50;95.90;;;;;;5012188;28;20377;-72
2021/04/05 09:04:22;;;;;;;7.78;4.30;;;10.90;94.20;;;;;;5012810;28;20385;-72
2021/04/05 09:07:05;;;;;;;11.00;4.68;;;11.50;93.70;;;;;;5011444;28;20393;-72
2021/04/05 09:09:34;;;;;;;8.80;4.13;;;11.00;96.00;;;;;;5032692;28;20426;-72
2021/04/05 09:12:01;;;;;;;13.00;5.28;;;;;;;;;;5031992;28;20383;-73
2021/04/05 09:14:30;;;;;;;8.43;5.20;;;;;;;;;;5022013;28;20380;-71
2021/04/05 09:17:05;;;;;;;9.35;4.72;;;11.30;93.80;;;;;;5011927;28;20891;-73
2021/04/05 09:19:40;;;;;;;10.80;5.40;;;11.40;98.10;;;;;;5012840;28;20805;-72
2021/04/05 09:22:34;;;;;;;9.40;5.35;;;11.20;96.50;;;;;;5012638;28;20498;-71
2021/04/05 09:25:24;;;;;;;7.73;4.70;;;11.20;93.40;;;;;;5011807;28;20831;-72
2021/04/05 09:27:58;;;;;;;9.05;5.47;;;11.20;95.40;;;;;;5011968;28;20420;-72
2021/04/05 09:30:30;;;;;;;10.30;5.20;;;11.50;96.60;;;;;;5012547;28;20856;-73
2021/04/05 09:33:06;;;;;;;12.32;5.82;;;;;;;;;;5010746;28;20433;-74
2021/04/05 09:35:34;;;;;;;10.60;5.70;;;11.30;93.70;;;;;;5012155;28;20384;-72
2021/04/05 09:38:03;;;;;;;7.50;4.85;;;;;;;;;;5011807;28;20396;-73
2021/04/05 09:41:06;;;;;;;11.27;5.10;;;10.90;95.60;;;;;;5010870;28;20397;-74
2021/04/05 09:43:50;;;;;;;8.55;4.70;;;;;;;;;;5011077;28;20397;-73
2021/04/05 09:46:32;;;;;;;6.40;4.57;;;;;;;;;;5012168;28;20377;-72
2021/04/05 09:49:04;;;;;;;9.98;5.07;;;;;;;;;;5010775;28;20423;-73
2021/04/05 09:51:38;;;;;;;10.70;5.45;;;10.90;99.20;;;;;;5012069;28;20830;-72
2021/04/05 09:54:25;;;;;;;10.85;5.10;;;11.20;98.30;;;;;;5011158;28;20895;-72
2021/04/05 09:57:01;;;;;;;7.60;4.85;;;10.80;97.30;;;;;;5011187;28;20786;-72
2021/04/05 09:59:52;;;;;;;9.93;5.30;;;10.90;98.40;;;;;;5012093;28;20385;-73
2021/04/05 10:02:35;;;;;;;9.60;5.50;;;10.90;94.20;;;;;;5002446;28;20754;-71
2021/04/05 10:05:02;;;;;;;11.15;6.22;;;11.30;94.20;;;;;;5011472;28;20460;-71
2021/04/05 10:07:29;;;;;;;8.85;5.20;;;;;;;;;;5018147;28;20404;-73
2021/04/05 10:09:58;;;;;;;10.60;5.00;;;10.80;95.90;;;;;;5029753;28;20466;-73
2021/04/05 10:12:28;;;;;;;10.60;5.20;;;11.10;94.10;;;;;;5031502;28;20379;-71
2021/04/05 10:14:56;;;;;;;10.70;5.70;;;10.80;95.60;;;;;;4998902;28;20412;-73
2021/04/05 10:17:24;;;;;;;9.50;4.40;;;10.70;93.50;;;;;;5010273;28;20396;-73
2021/04/05 10:19:55;;;;;;;10.40;5.70;;;11.20;97.60;;;;;;5011178;28;20385;-72
2021/04/05 10:22:22;;;;;;;9.13;5.30;;;;;;;;;;5011691;28;20876;-72
2021/04/05 10:24:49;;;;;;;10.77;5.10;;;;;;;;;;5010810;28;20730;-73
2021/04/05 10:27:18;;;;;;;7.45;4.68;;;;;;;;;;5010282;28;20373;-73
2021/04/05 10:29:46;;;;;;;9.57;4.85;;;11.10;95.80;;;;;;5010940;28;20400;-73
2021/04/05 10:32:21;;;;;;;10.15;4.80;;;11.40;90.50;;;;;;5010215;28;20397;-73
2021/04/05 10:34:50;;;;;;;9.10;4.68;;;;;;;;;;4993401;28;20376;-73
2021/04/05 10:37:21;;;;;;;9.32;5.75;;;11.30;89.50;;;;;;5011312;28;20420;-73
2021/04/05 10:39:49;;;;;;;9.30;4.40;;;11.80;90.40;;;;;;5010553;28;20753;-72
2021/04/05 10:42:47;;;;;;;11.43;4.53;;;11.60;92.00;;;;;;5011337;28;20413;-73
2021/04/05 10:45:19;;;;;;;9.93;4.78;;;12.30;93.30;;;;;;4981051;28;20483;-75
2021/04/05 10:48:04;;;;;;;9.80;3.78;;;11.60;88.90;;;;;;5010450;28;20428;-74
2021/04/05 10:50:35;;;;;;;11.07;5.40;;;11.80;90.20;;;;;;5011201;28;20742;-74
2021/04/05 10:53:13;;;;;;;8.50;4.77;;;11.70;90.40;;;;;;5009166;28;20389;-73
2021/04/05 10:55:43;;;;;;;6.57;4.75;;;12.30;91.30;;;;;;5011437;28;20457;-73
2021/04/05 10:58:17;;;;;;;7.53;4.00;;;12.20;93.90;;;;;;5010975;28;20392;-72
2021/04/05 11:00:50;;;;;;;9.25;4.90;;;12.00;93.40;;;;;;5010394;28;20385;-73
2021/04/05 11:03:19;;;;;;;10.98;4.07;;;11.80;91.40;;;;;;5010942;28;20389;-71
2021/04/05 11:05:52;;;;;;;7.53;4.90;;;;;;;;;;5010603;28;20865;-72
2021/04/05 11:08:23;;;;;;;10.93;4.23;;;12.30;92.40;;;;;;5021547;28;20432;-72
2021/04/05 11:10:58;;;;;;;7.38;4.60;;;12.10;85.40;;;;;;5028396;28;20403;-73
2021/04/05 11:13:26;;;;;;;10.50;4.60;;;;;;;;;;5030826;28;20903;-73
2021/04/05 11:15:53;;;;;;;8.73;3.95;;;;;;;;;;5029018;28;20375;-73
2021/04/05 11:18:22;;;;;;;8.75;5.38;;;12.90;85.10;;;;;;5031054;28;20436;-74
2021/04/05 11:20:50;;;;;;;9.30;4.22;;;13.40;84.20;;;;;;5030146;28;20394;-73
2021/04/05 11:23:18;;;;;;;8.32;4.70;;;13.10;91.00;;;;;;5030818;28;20383;-72
2021/04/05 11:25:51;;;;;;;6.50;3.65;;;13.30;83.50;;;;;;5030192;28;20390;-75
2021/04/05 11:28:19;;;;;;;6.82;3.53;;;13.10;81.30;;;;;;5030463;28;20447;-72
2021/04/05 11:30:48;;;;;;;5.13;3.08;;;13.60;78.20;;;;;;5033958;28;20402;-74
2021/04/05 11:33:15;;;;;;;8.67;4.00;;;13.30;80.00;;;;;;5034488;28;20383;-71
2021/04/05 11:35:44;;;;;;;8.77;3.60;;;14.00;77.20;;;;;;5034483;28;20440;-71
2021/04/05 11:38:19;;;;;;;3.88;3.45;;;14.50;86.10;;;;;;5034304;28;20410;-72
2021/04/05 11:40:47;;;;;;;7.78;3.40;;;;;;;;;;5034151;28;20389;-76
2021/04/05 11:43:22;;;;;;;9.02;3.80;;;13.20;83.20;;;;;;5034239;28;20866;-73
2021/04/05 11:45:53;;;;;;;5.45;3.00;;;;;;;;;;5033607;28;20386;-73
2021/04/05 11:48:21;;;;;;;6.65;3.60;;;14.60;75.50;;;;;;5034009;28;20411;-73
2021/04/05 11:50:48;;;;;;;4.78;3.25;;;14.30;72.20;;;;;;5033666;28;20478;-73
2021/04/05 11:53:22;;;;;;;5.00;2.90;;;14.00;74.30;;;;;;5033818;28;20732;-72
2021/04/05 11:55:59;;;;;;;6.63;3.50;;;14.10;72.80;;;;;;5033450;28;20383;-72
2021/04/05 11:58:31;;;;;;;7.63;3.70;;;;;;;;;;5034179;28;20394;-72
2021/04/05 12:01:03;;;;;;;5.65;3.20;;;14.40;82.80;;;;;;5033542;28;20376;-73
2021/04/05 12:03:50;;;;;;;3.58;2.78;;;13.90;73.00;;;;;;5033868;28;20383;-73
2021/04/05 12:06:18;;;;;;;5.97;3.00;;;14.30;73.00;;;;;;5034062;28;20387;-72
2021/04/05 12:09:02;;;;;;;6.90;3.63;;;14.50;75.70;;;;;;5033843;28;20417;-73
2021/04/05 12:11:32;;;;;;;6.32;2.95;;;13.50;83.20;;;;;;5033982;28;20395;-73
2021/04/05 12:14:12;;;;;;;7.40;3.45;;;14.20;83.70;;;;;;5026244;28;20741;-71
2021/04/05 12:16:39;;;;;;;5.43;3.83;;;14.10;73.00;;;;;;5014033;28;20707;-72
2021/04/05 12:19:06;;;;;;;7.07;3.47;;;14.20;73.00;;;;;;5013532;28;20392;-73
2021/04/05 12:21:35;;;;;;;7.10;3.80;;;13.60;74.70;;;;;;5013895;28;20393;-72
2021/04/05 12:24:04;;;;;;;6.28;3.53;;;13.70;75.40;;;;;;5012918;28;20381;-73
2021/04/05 12:26:32;;;;;;;5.10;3.20;;;13.40;82.00;;;;;;4995897;28;20421;-72
2021/04/05 12:29:03;;;;;;;7.27;3.00;;;;;;;;;;5013195;28;20495;-72
2021/04/05 12:31:30;;;;;;;5.90;3.30;;;;;;;;;;5013747;28;20419;-72
2021/04/05 12:34:08;;;;;;;5.57;3.33;;;13.40;77.90;;;;;;5012995;28;20431;-73
2021/04/05 12:36:35;;;;;;;7.50;3.40;;;13.10;77.40;;;;;;5013621;28;20385;-74
2021/04/05 12:39:03;;;;;;;6.20;3.67;;;;;;;;;;4995404;28;20903;-72
2021/04/05 12:41:35;;;;;;;7.00;4.13;;;13.20;89.10;;;;;;5012231;28;20389;-74
2021/04/05 12:44:03;;;;;;;7.72;3.90;;;13.10;79.20;;;;;;5012576;28;20469;-72
2021/04/05 12:46:30;;;;;;;11.05;4.10;;;12.80;78.90;;;;;;5013699;28;20471;-73
2021/04/05 12:49:02;;;;;;;5.68;3.22;;;12.70;72.80;;;;;;5012582;28;20455;-73
2021/04/05 12:51:29;;;;;;;6.53;3.70;;;13.50;76.90;;;;;;5012982;28;20881;-73
2021/04/05 12:54:12;;;;;;;5.45;3.20;;;13.70;79.30;;;;;;5012685;28;20381;-73
2021/04/05 12:56:43;;;;;;;7.23;3.93;;;13.70;79.00;;;;;;5013071;28;20453;-73
2021/04/05 12:59:12;;;;;;;6.43;3.40;;;;;;;;;;5012663;28;21041;-71
2021/04/05 13:01:48;;;;;;;6.40;3.00;;;13.20;78.70;;;;;;5013124;28;20426;-72
2021/04/05 13:04:22;;;;;;;5.55;3.00;;;13.70;79.10;;;;;;5012451;28;20391;-73
2021/04/05 13:07:00;;;;;;;5.82;3.08;;;;;;;;;;5012720;28;20464;-72
2021/04/05 13:09:32;;;;;;;7.90;3.40;;;;;;;;;;5018433;28;20423;-72
2021/04/05 13:12:10;;;;;;;8.20;3.25;;;14.10;79.00;;;;;;5032233;28;20422;-73
2021/04/05 13:14:47;;;;;;;6.93;3.70;;;13.80;86.80;;;;;;5020802;28;20750;-74
2021/04/05 13:17:21;;;;;;;5.85;3.00;;;;;;;;;;5012216;28;20400;-73
2021/04/05 13:20:04;;;;;;;6.60;3.50;;;13.90;79.20;;;;;;5012655;28;20385;-74
2021/04/05 13:22:33;;;;;;;4.50;3.15;;;13.70;77.80;;;;;;5012946;28;20389;-73
2021/04/05 13:25:09;;;;;;;5.45;3.05;;;;;;;;;;5011832;28;20852;-73
2021/04/05 13:27:36;;;;;;;6.35;3.10;;;13.80;85.50;;;;;;5012500;28;20475;-72
2021/04/05 13:30:05;;;;;;;5.18;2.70;;;13.70;75.50;;;;;;5011985;28;20396;-73
2021/04/05 13:32:35;;;;;;;4.32;2.28;;;13.80;85.60;;;;;;5012601;28;20385;-72
2021/04/05 13:35:03;;;;;;;4.97;2.80;;;;;;;;;;5011544;28;20866;-71
2021/04/05 13:37:30;;;;;;;4.00;2.50;;;;;;;;;;5012525;28;20865;-73
2021/04/05 13:39:56;;;;;;;8.73;2.80;;;;;;;;;;5011503;28;20719;-73
2021/04/05 13:42:25;;;;;;;6.57;3.10;;;13.30;79.00;;;;;;5012390;28;20396;-73
2021/04/05 13:44:52;;;;;;;6.22;2.75;;;;;;;;;;5012305;28;20742;-74
2021/04/05 13:47:27;;;;;;;5.38;2.40;;;13.50;76.10;;;;;;5012329;28;20424;-72
2021/04/05 13:49:59;;;;;;;3.05;2.00;;;12.80;73.00;;;;;;5011551;28;20424;-75
2021/04/05 13:52:28;;;;;;;9.80;2.53;;;13.70;77.10;;;;;;5012110;28;20459;-71
2021/04/05 13:55:21;;;;;;;6.32;3.00;;;13.60;80.90;;;;;;5011176;28;20385;-73
2021/04/05 13:57:49;;;;;;;4.28;2.40;;;13.40;76.50;;;;;;4999187;28;20397;-72
2021/04/05 14:00:26;;;;;;;3.40;2.22;;;;;;;;;;5011065;28;20395;-72
2021/04/05 14:03:00;;;;;;;5.65;2.53;;;13.10;74.50;;;;;;5012104;28;20389;-72